Terminal Aerodrome Forecast
Issued by NWS Wichita, KS

Home | Current Version | Previous Version | Text Only | Print | Product List | Glossary On
Versions: 1 2 3 4 5 6 7 8 9 10 11 12 13 14 15 16 17 18 19 20 21 22 23 24
000
FTUS43 KICT 191143
TAFICT
TAF
KICT 191143Z 1912/2012 06013KT P6SM OVC150
     FM192100 10013G19KT P6SM BKN035
     FM200000 10013KT P6SM VCSH SCT020 OVC035=

USA.gov is the U.S. government's official web portal to all federal, state and local government web resources and services.